Time;durP1;ratioP1;P1;durP2;ratioP2;P2;SDS_P1;SDS_P2;PMS_P1;PMS_P2;Temp;Humidity;BMP_temperature;BMP_pressure;BME280_temperature;BME280_humidity;BME280_pressure;Samples;Min_cycle;Max_cycle;Signal;HPM_P1;HPM_P2
2023/02/19 00:00:16;;;;;;;;;;;;;;;9.65;71.66;98333.28;5062812;28;19951;-52
2023/02/19 00:02:45;;;;;;;;;;;;;;;9.57;71.95;98331.22;5069995;28;20407;-52
2023/02/19 00:05:13;;;;;;;;;;;;;;;9.59;72.15;98331.75;5066194;28;20408;-51
2023/02/19 00:07:42;;;;;;;;;;;;;;;9.62;72.11;98328.44;5066568;28;20397;-52
2023/02/19 00:10:10;;;;;;;;;;;;;;;9.65;72.07;98314.31;5067498;28;20305;-52
2023/02/19 00:12:38;;;;;;;;;;;;;;;9.60;72.07;98317.91;5064477;28;19925;-52
2023/02/19 00:15:08;;;;;;;;;;;;;;;9.50;72.53;98317.25;5066475;28;20007;-52
2023/02/19 00:17:37;;;;;;;;;;;;;;;9.45;72.77;98327.06;5065330;28;19974;-52
2023/02/19 00:20:04;;;;;;;;;;;;;;;9.38;73.19;98323.91;5069906;28;19924;-52
2023/02/19 00:22:35;;;;;;;;;;;;;;;9.27;73.87;98325.16;5070755;28;20373;-53
2023/02/19 00:25:04;;;;;;;;;;;;;;;9.37;73.57;98316.06;5073780;28;19928;-52
2023/02/19 00:27:32;;;;;;;;;;;;;;;9.29;73.78;98317.53;5070871;28;19928;-51
2023/02/19 00:30:01;;;;;;;;;;;;;;;9.28;74.20;98315.94;5062202;28;20304;-51
2023/02/19 00:32:30;;;;;;;;;;;;;;;9.30;74.27;98319.13;5069027;28;19924;-51
2023/02/19 00:35:01;;;;;;;;;;;;;;;9.24;74.88;98325.72;5063305;28;19932;-52
2023/02/19 00:37:29;;;;;;;;;;;;;;;9.29;75.35;98316.72;5070422;28;19931;-52
2023/02/19 00:39:57;;;;;;;;;;;;;;;9.29;75.65;98317.53;5063033;28;19931;-52
2023/02/19 00:42:25;;;;;;;;;;;;;;;9.11;76.43;98315.63;5061205;28;19974;-52
2023/02/19 00:44:53;;;;;;;;;;;;;;;9.15;76.96;98311.22;5096246;28;19967;-52
2023/02/19 00:47:22;;;;;;;;;;;;;;;9.17;77.44;98309.84;5065704;28;19933;-51
2023/02/19 00:49:51;;;;;;;;;;;;;;;9.03;78.31;98311.66;5068804;28;20338;-52
2023/02/19 00:52:19;;;;;;;;;;;;;;;9.05;78.48;98305.94;5096896;28;19955;-52
2023/02/19 00:54:48;;;;;;;;;;;;;;;9.03;78.51;98298.09;5063119;28;20336;-52
2023/02/19 00:57:16;;;;;;;;;;;;;;;8.91;78.94;98306.66;5069927;28;19977;-52
2023/02/19 00:59:44;;;;;;;;;;;;;;;8.94;78.88;98307.97;5071471;28;19928;-50
2023/02/19 01:02:14;;;;;;;;;;;;;;;9.03;78.64;98302.72;5068722;28;20007;-50
2023/02/19 01:04:42;;;;;;;;;;;;;;;9.03;78.73;98291.88;5069653;28;19924;-51
2023/02/19 01:07:11;;;;;;;;;;;;;;;8.93;79.28;98277.34;5065829;28;19925;-51
2023/02/19 01:09:39;;;;;;;;;;;;;;;8.89;79.69;98270.94;5070567;28;19936;-50
2023/02/19 01:12:07;;;;;;;;;;;;;;;8.93;79.42;98276.53;5068310;28;19925;-51
2023/02/19 01:15:00;;;;;;;;;;;;;;;8.84;79.37;98273.69;5067507;28;19924;-51
2023/02/19 01:17:28;;;;;;;;;;;;;;;8.81;79.55;98273.47;5064608;28;19931;-51
2023/02/19 01:19:56;;;;;;;;;;;;;;;8.84;79.71;98268.28;5101474;28;19977;-50
2023/02/19 01:22:25;;;;;;;;;;;;;;;8.75;79.85;98271.91;5070044;28;20002;-51
2023/02/19 01:24:56;;;;;;;;;;;;;;;8.74;80.18;98276.53;5060936;28;20435;-51
2023/02/19 01:27:24;;;;;;;;;;;;;;;8.76;80.03;98274.34;5064739;28;19928;-50
2023/02/19 01:29:52;;;;;;;;;;;;;;;8.77;79.87;98270.53;5066610;28;19988;-52
2023/02/19 01:32:21;;;;;;;;;;;;;;;8.78;79.78;98276.75;5071660;28;20373;-50
2023/02/19 01:34:49;;;;;;;;;;;;;;;8.80;79.74;98261.81;5061978;28;20302;-52
2023/02/19 01:37:17;;;;;;;;;;;;;;;8.74;79.82;98252.16;5059340;28;20293;-51
2023/02/19 01:39:47;;;;;;;;;;;;;;;8.74;79.67;98238.63;5099186;28;20372;-51
2023/02/19 01:42:15;;;;;;;;;;;;;;;8.70;79.76;98236.78;5080189;28;19932;-51
2023/02/19 01:45:13;;;;;;;;;;;;;;;8.76;79.48;98232.91;5060611;28;19924;-50
2023/02/19 01:47:41;;;;;;;;;;;;;;;8.72;79.91;98232.66;5019178;28;19929;-51
2023/02/19 01:50:10;;;;;;;;;;;;;;;8.76;79.50;98233.69;5054444;28;19924;-51
2023/02/19 01:52:37;;;;;;;;;;;;;;;8.74;79.70;98226.97;5063263;28;19925;-51
2023/02/19 01:55:07;;;;;;;;;;;;;;;8.71;79.50;98232.97;5069005;28;19924;-51
2023/02/19 01:57:36;;;;;;;;;;;;;;;8.73;79.68;98217.22;5060219;28;19925;-51
2023/02/19 02:00:05;;;;;;;;;;;;;;;8.69;79.68;98214.31;5068711;28;19932;-53
2023/02/19 02:02:39;;;;;;;;;;;;;;;8.73;79.79;98222.63;5052693;28;19963;-51
2023/02/19 02:05:07;;;;;;;;;;;;;;;8.73;80.04;98226.13;5083260;28;19925;-51
2023/02/19 02:10:23;;;;;;;;;;;;;;;8.66;79.92;98217.56;5066362;28;19936;-52
2023/02/19 02:12:52;;;;;;;;;;;;;;;8.63;80.17;98220.88;5061906;28;19932;-51
2023/02/19 02:15:21;;;;;;;;;;;;;;;8.65;80.25;98226.81;5059782;28;19925;-51
2023/02/19 02:17:51;;;;;;;;;;;;;;;8.71;80.13;98214.00;5064716;28;19925;-51
2023/02/19 02:20:25;;;;;;;;;;;;;;;8.72;79.54;98221.03;5062311;28;19940;-56
2023/02/19 02:22:55;;;;;;;;;;;;;;;8.74;79.82;98225.06;5064779;28;19924;-51
2023/02/19 02:25:33;;;;;;;;;;;;;;;8.64;80.26;98212.47;5062933;28;19928;-51
2023/02/19 02:28:08;;;;;;;;;;;;;;;8.66;79.87;98214.88;5058299;28;19929;-51
2023/02/19 02:30:39;;;;;;;;;;;;;;;8.74;79.57;98205.31;5089875;28;19925;-51
2023/02/19 02:33:11;;;;;;;;;;;;;;;8.63;79.62;98208.16;5068863;28;19934;-51
2023/02/19 02:38:33;;;;;;;;;;;;;;;8.59;79.79;98201.69;5062684;28;19924;-52
2023/02/19 02:41:04;;;;;;;;;;;;;;;8.63;79.68;98204.63;5070670;28;19947;-56
2023/02/19 02:43:32;;;;;;;;;;;;;;;8.69;79.68;98203.47;5096475;28;19925;-61
2023/02/19 02:46:03;;;;;;;;;;;;;;;8.77;79.16;98193.88;5061570;28;19931;-51
2023/02/19 02:48:34;;;;;;;;;;;;;;;8.75;79.74;98201.50;5069308;28;19924;-51
2023/02/19 02:51:04;;;;;;;;;;;;;;;8.73;79.22;98196.34;5100000;28;19970;-55
2023/02/19 02:56:25;;;;;;;;;;;;;;;8.70;79.54;98179.88;5075464;28;19936;-51
2023/02/19 02:58:53;;;;;;;;;;;;;;;8.63;79.54;98188.38;5065089;28;19999;-51
2023/02/19 03:04:16;;;;;;;;;;;;;;;8.68;79.21;98179.34;5064988;28;19924;-52
2023/02/19 03:09:40;;;;;;;;;;;;;;;8.73;79.03;98185.50;5073025;28;19928;-52
2023/02/19 03:20:32;;;;;;;;;;;;;;;8.74;78.62;98175.50;5087316;28;19932;-55
2023/02/19 03:23:02;;;;;;;;;;;;;;;8.73;78.15;98173.88;5065498;28;19928;-51
2023/02/19 03:29:21;;;;;;;;;;;;;;;8.73;77.64;98173.88;5080435;28;19925;-57
2023/02/19 03:31:15;;;;;;;;;;;;;;;8.64;78.21;98176.44;5071008;28;19932;-51
2023/02/19 03:33:45;;;;;;;;;;;;;;;8.71;78.16;98179.59;5069857;28;19924;-52
2023/02/19 03:36:14;;;;;;;;;;;;;;;8.69;77.88;98178.28;5063233;28;20416;-52
2023/02/19 03:41:39;;;;;;;;;;;;;;;8.69;77.69;98162.84;5062786;28;20337;-51
2023/02/19 03:44:09;;;;;;;;;;;;;;;8.71;77.46;98160.63;5067382;28;19925;-51
2023/02/19 03:46:41;;;;;;;;;;;;;;;8.64;77.55;98165.63;5061224;28;19925;-51
2023/02/19 03:49:13;;;;;;;;;;;;;;;8.64;77.46;98165.63;5082559;28;20520;-51
2023/02/19 03:52:07;;;;;;;;;;;;;;;8.65;77.58;98161.81;5070170;28;21758;-53
2023/02/19 03:54:37;;;;;;;;;;;;;;;8.67;77.54;98154.19;5103726;28;19924;-52
2023/02/19 03:57:07;;;;;;;;;;;;;;;8.67;77.55;98154.19;5103129;28;19925;-52
2023/02/19 03:59:37;;;;;;;;;;;;;;;8.67;77.42;98154.19;5066698;28;20286;-52
2023/02/19 04:02:06;;;;;;;;;;;;;;;8.75;76.69;98161.66;5086185;28;19925;-52
2023/02/19 04:04:36;;;;;;;;;;;;;;;8.69;76.79;98157.41;5069981;28;19932;-52
2023/02/19 04:07:04;;;;;;;;;;;;;;;8.69;77.03;98146.59;5069988;28;19928;-52
2023/02/19 04:09:36;;;;;;;;;;;;;;;8.71;76.72;98155.22;5069196;28;19970;-51
2023/02/19 04:15:03;;;;;;;;;;;;;;;8.69;76.61;98164.75;5092042;27;19940;-51
2023/02/19 04:17:32;;;;;;;;;;;;;;;8.65;76.59;98168.03;5070386;28;20365;-52
2023/02/19 04:20:01;;;;;;;;;;;;;;;8.67;76.45;98167.72;5071731;28;20354;-51
2023/02/19 04:22:29;;;;;;;;;;;;;;;8.64;76.62;98177.25;5069359;28;19925;-51
2023/02/19 04:24:59;;;;;;;;;;;;;;;8.70;76.64;98185.31;5065002;28;19994;-53
2023/02/19 04:27:27;;;;;;;;;;;;;;;8.62;76.83;98173.22;5061255;28;19928;-51
2023/02/19 04:29:55;;;;;;;;;;;;;;;8.66;76.84;98168.81;5065608;28;19925;-51
2023/02/19 04:32:23;;;;;;;;;;;;;;;8.81;76.04;98171.31;5068614;28;20282;-51
2023/02/19 04:34:51;;;;;;;;;;;;;;;8.73;76.53;98182.81;5063065;28;19929;-51
2023/02/19 04:37:22;;;;;;;;;;;;;;;8.74;76.33;98183.63;5064521;28;19925;-51
2023/02/19 04:39:51;;;;;;;;;;;;;;;8.71;76.49;98181.50;5068317;28;20542;-52
2023/02/19 04:42:19;;;;;;;;;;;;;;;8.72;76.60;98164.13;5072468;28;20373;-52
2023/02/19 04:44:49;;;;;;;;;;;;;;;8.69;75.98;98173.66;5062608;28;19925;-52
2023/02/19 04:47:17;;;;;;;;;;;;;;;8.73;76.06;98174.66;5070467;28;19935;-56
2023/02/19 04:49:45;;;;;;;;;;;;;;;8.67;76.02;98175.84;5064639;28;19924;-52
2023/02/19 04:52:13;;;;;;;;;;;;;;;8.62;76.42;98173.22;5071616;28;19928;-52
2023/02/19 04:54:42;;;;;;;;;;;;;;;8.70;76.11;98196.13;5061602;28;20022;-51
2023/02/19 04:57:11;;;;;;;;;;;;;;;8.70;76.19;98188.00;5064172;28;19935;-51
2023/02/19 04:59:39;;;;;;;;;;;;;;;8.74;75.85;98191.75;5065981;28;20373;-51
2023/02/19 05:02:07;;;;;;;;;;;;;;;8.73;76.04;98203.66;5070799;28;19928;-51
2023/02/19 05:04:35;;;;;;;;;;;;;;;8.71;76.08;98195.84;5070384;28;20015;-51
2023/02/19 05:07:03;;;;;;;;;;;;;;;8.70;76.00;98193.44;5059277;28;19925;-52
2023/02/19 05:09:32;;;;;;;;;;;;;;;8.79;75.44;98183.53;5065507;28;19925;-52
2023/02/19 05:12:01;;;;;;;;;;;;;;;8.78;75.78;98182.72;5067223;28;19928;-52
2023/02/19 05:14:29;;;;;;;;;;;;;;;8.77;75.61;98189.25;5069874;28;20357;-52
2023/02/19 05:16:57;;;;;;;;;;;;;;;8.82;75.38;98178.34;5071145;28;20393;-51
2023/02/19 05:19:25;;;;;;;;;;;;;;;8.89;75.07;98184.22;5062845;28;19943;-51
2023/02/19 05:22:18;;;;;;;;;;;;;;;8.93;74.59;98181.72;5060782;28;19956;-53
2023/02/19 05:24:46;;;;;;;;;;;;;;;8.89;74.27;98181.50;5060733;28;19925;-52
2023/02/19 05:27:16;;;;;;;;;;;;;;;8.85;75.03;98183.19;5070490;28;19925;-52
2023/02/19 05:29:46;;;;;;;;;;;;;;;8.88;75.09;98184.50;5065887;28;19944;-52
2023/02/19 05:32:14;;;;;;;;;;;;;;;8.89;74.41;98183.38;5068476;28;19924;-52
2023/02/19 05:34:42;;;;;;;;;;;;;;;8.94;73.79;98169.75;5069642;28;20296;-51
2023/02/19 05:37:10;;;;;;;;;;;;;;;8.96;73.44;98175.72;5067790;28;19928;-52
2023/02/19 05:39:38;;;;;;;;;;;;;;;8.94;73.45;98169.75;5068525;28;19925;-52
2023/02/19 05:42:06;;;;;;;;;;;;;;;8.99;73.41;98182.44;5067644;28;19931;-53
2023/02/19 05:44:36;;;;;;;;;;;;;;;8.94;73.50;98180.59;5063360;28;19925;-51
2023/02/19 05:47:04;;;;;;;;;;;;;;;8.97;73.45;98179.22;5067054;28;19924;-51
2023/02/19 05:49:32;;;;;;;;;;;;;;;8.90;73.37;98183.13;5063293;28;19928;-52
2023/02/19 05:51:59;;;;;;;;;;;;;;;8.82;73.72;98200.03;5066929;28;20298;-52
2023/02/19 05:54:28;;;;;;;;;;;;;;;8.95;72.97;98203.91;5061447;28;19932;-51
2023/02/19 05:57:21;;;;;;;;;;;;;;;8.96;72.98;98210.94;5072229;28;20699;-51
2023/02/19 05:59:51;;;;;;;;;;;;;;;8.95;73.22;98198.50;5056689;28;19929;-52
2023/02/19 06:02:43;;;;;;;;;;;;;;;8.97;73.05;98200.91;5060085;28;19970;-51
2023/02/19 06:05:14;;;;;;;;;;;;;;;8.95;73.10;98203.09;5069138;28;19948;-51
2023/02/19 06:07:42;;;;;;;;;;;;;;;8.94;72.92;98205.00;5063072;28;20373;-51
2023/02/19 06:10:11;;;;;;;;;;;;;;;8.99;72.97;98213.06;5053880;28;19940;-51
2023/02/19 06:12:38;;;;;;;;;;;;;;;9.00;72.78;98222.81;5069151;28;19931;-51
2023/02/19 06:15:08;;;;;;;;;;;;;;;8.98;73.54;98210.63;5067073;28;19928;-52
2023/02/19 06:17:36;;;;;;;;;;;;;;;8.99;74.13;98220.38;5061586;28;19932;-52
2023/02/19 06:20:04;;;;;;;;;;;;;;;8.91;74.75;98206.41;5066072;28;19931;-52
2023/02/19 06:22:32;;;;;;;;;;;;;;;8.92;74.56;98216.13;5060121;28;19929;-52
2023/02/19 06:25:00;;;;;;;;;;;;;;;8.90;74.72;98206.69;5067241;28;19932;-52
2023/02/19 06:27:28;;;;;;;;;;;;;;;8.87;74.71;98208.06;5062604;28;20297;-51
2023/02/19 06:29:56;;;;;;;;;;;;;;;8.86;74.52;98221.91;5092371;28;19924;-52
2023/02/19 06:32:26;;;;;;;;;;;;;;;8.87;75.00;98218.91;5059984;28;20431;-52
2023/02/19 06:34:54;;;;;;;;;;;;;;;8.83;74.95;98227.91;5058902;28;20336;-52
2023/02/19 06:37:22;;;;;;;;;;;;;;;8.88;74.85;98228.66;5058202;28;19929;-52
2023/02/19 06:39:50;;;;;;;;;;;;;;;8.89;74.39;98227.56;5063987;28;19928;-52
2023/02/19 06:42:21;;;;;;;;;;;;;;;8.98;74.24;98232.31;5063732;28;20294;-52
2023/02/19 06:44:49;;;;;;;;;;;;;;;8.97;73.82;98242.34;5057030;28;19933;-52
2023/02/19 06:47:17;;;;;;;;;;;;;;;8.93;73.56;98223.16;5059667;28;19944;-52
2023/02/19 06:49:46;;;;;;;;;;;;;;;8.98;73.76;98254.00;5056606;28;19932;-52
2023/02/19 06:52:14;;;;;;;;;;;;;;;8.91;74.02;98249.75;5055931;28;19928;-51
2023/02/19 06:54:42;;;;;;;;;;;;;;;9.05;73.00;98246.31;5051551;28;19925;-52
2023/02/19 06:57:10;;;;;;;;;;;;;;;8.99;73.56;98261.81;5057792;28;20285;-52
2023/02/19 06:59:38;;;;;;;;;;;;;;;9.02;72.97;98252.31;5055319;28;19925;-51
2023/02/19 07:02:06;;;;;;;;;;;;;;;9.03;72.98;98262.88;5055968;28;19924;-52
2023/02/19 07:04:34;;;;;;;;;;;;;;;9.04;73.09;98269.09;5060273;28;19935;-52
2023/02/19 07:07:03;;;;;;;;;;;;;;;9.01;72.91;98265.06;5066677;28;19924;-53
2023/02/19 07:09:31;;;;;;;;;;;;;;;9.06;72.40;98269.63;5064302;28;19929;-52
2023/02/19 07:11:59;;;;;;;;;;;;;;;9.09;72.38;98263.59;5068885;28;19924;-52
2023/02/19 07:17:29;;;;;;;;;;;;;;;9.16;71.86;98272.16;5056847;28;20404;-51
2023/02/19 07:19:57;;;;;;;;;;;;;;;9.08;72.27;98270.91;5058025;28;19925;-52
2023/02/19 07:22:30;;;;;;;;;;;;;;;9.13;71.55;98276.28;5062590;28;19931;-51
2023/02/19 07:24:58;;;;;;;;;;;;;;;9.18;71.14;98281.63;5068673;28;19924;-52
2023/02/19 07:27:26;;;;;;;;;;;;;;;9.15;71.31;98284.09;5073521;28;19925;-52
2023/02/19 07:29:55;;;;;;;;;;;;;;;9.18;70.94;98284.34;5075067;28;19928;-53
2023/02/19 07:32:23;;;;;;;;;;;;;;;9.20;70.90;98286.75;5075360;28;19928;-58
2023/02/19 07:34:51;;;;;;;;;;;;;;;9.23;70.78;98291.59;5074602;28;19939;-54
2023/02/19 07:37:20;;;;;;;;;;;;;;;9.29;70.44;98285.00;5070072;28;20305;-57
2023/02/19 07:39:50;;;;;;;;;;;;;;;9.35;70.27;98293.84;5066721;28;19925;-52
2023/02/19 07:42:17;;;;;;;;;;;;;;;9.43;70.12;98299.44;5066685;28;20298;-56
2023/02/19 07:44:46;;;;;;;;;;;;;;;9.47;69.62;98302.34;5072646;28;19924;-53
2023/02/19 07:47:14;;;;;;;;;;;;;;;9.52;69.50;98294.13;5074288;28;19932;-53
2023/02/19 07:49:42;;;;;;;;;;;;;;;9.49;69.68;98302.06;5071966;28;20362;-53
2023/02/19 07:52:11;;;;;;;;;;;;;;;9.51;69.44;98297.94;5068124;28;19924;-53
2023/02/19 07:54:39;;;;;;;;;;;;;;;9.59;68.73;98293.78;5068132;28;19925;-56
2023/02/19 07:57:14;;;;;;;;;;;;;;;9.56;69.28;98288.94;5068525;28;19928;-52
2023/02/19 07:59:42;;;;;;;;;;;;;;;9.55;68.71;98298.19;5057294;28;20008;-53
2023/02/19 08:04:58;;;;;;;;;;;;;;;9.65;68.47;98308.88;5068125;28;20630;-53
2023/02/19 08:07:30;;;;;;;;;;;;;;;9.55;68.74;98303.59;5071172;28;19924;-52
2023/02/19 08:13:18;;;;;;;;;;;;;;;9.55;68.66;98298.19;5070044;28;19933;-53
2023/02/19 08:15:42;;;;;;;;;;;;;;;9.77;67.75;98309.22;5071725;28;20408;-52
2023/02/19 08:18:10;;;;;;;;;;;;;;;9.67;67.92;98309.38;5068224;28;19928;-53
2023/02/19 08:20:38;;;;;;;;;;;;;;;9.80;67.70;98316.78;5060382;28;19925;-53
2023/02/19 08:23:06;;;;;;;;;;;;;;;9.74;67.45;98319.84;5050952;28;20320;-53
2023/02/19 08:25:34;;;;;;;;;;;;;;;9.80;67.45;98330.34;5062029;28;20293;-52
2023/02/19 08:28:05;;;;;;;;;;;;;;;9.80;67.63;98319.50;5061846;28;19933;-53
2023/02/19 08:30:33;;;;;;;;;;;;;;;9.81;67.31;98331.16;5062828;28;19932;-53
2023/02/19 08:33:02;;;;;;;;;;;;;;;9.85;67.34;98324.00;5065623;28;19932;-52
2023/02/19 08:35:30;;;;;;;;;;;;;;;9.87;66.61;98347.03;5066400;28;19935;-52
2023/02/19 08:37:58;;;;;;;;;;;;;;;9.94;66.59;98343.94;5067933;28;20442;-52
2023/02/19 08:40:27;;;;;;;;;;;;;;;9.91;66.44;98353.50;5065274;28;19951;-52
2023/02/19 08:42:54;;;;;;;;;;;;;;;9.88;66.10;98350.56;5062204;28;19925;-52
2023/02/19 08:45:24;;;;;;;;;;;;;;;9.74;66.66;98361.34;5060373;28;19928;-52
2023/02/19 08:47:52;;;;;;;;;;;;;;;9.86;66.63;98353.56;5057273;28;19925;-53
2023/02/19 08:53:12;;;;;;;;;;;;;;;9.95;66.10;98367.25;5063399;28;19931;-52
2023/02/19 08:55:40;;;;;;;;;;;;;;;9.94;66.08;98371.09;5063229;28;19941;-56
2023/02/19 08:58:09;;;;;;;;;;;;;;;9.90;66.12;98370.88;5057866;28;19953;-52
2023/02/19 09:00:38;;;;;;;;;;;;;;;9.86;66.10;98377.19;5061374;28;19933;-54
2023/02/19 09:03:06;;;;;;;;;;;;;;;9.95;65.95;98364.56;5062479;28;19950;-52
2023/02/19 09:05:37;;;;;;;;;;;;;;;9.94;66.02;98371.88;5059892;28;19933;-52
2023/02/19 09:08:05;;;;;;;;;;;;;;;9.97;66.61;98375.94;5088941;28;19932;-53
2023/02/19 09:10:33;;;;;;;;;;;;;;;9.98;66.14;98382.97;5064511;28;19952;-53
2023/02/19 09:13:02;;;;;;;;;;;;;;;10.06;66.35;98378.75;5061328;28;19936;-52
2023/02/19 09:15:32;;;;;;;;;;;;;;;10.11;66.19;98382.19;5050871;28;21539;-52
2023/02/19 09:18:02;;;;;;;;;;;;;;;10.09;66.19;98397.19;5058211;28;19924;-52
2023/02/19 09:20:30;;;;;;;;;;;;;;;10.16;66.07;98384.84;5055047;28;19932;-54
2023/02/19 09:22:58;;;;;;;;;;;;;;;10.23;66.07;98396.16;5056841;28;19929;-52
2023/02/19 09:25:27;;;;;;;;;;;;;;;10.23;65.99;98395.34;5055530;28;19986;-52
2023/02/19 09:27:56;;;;;;;;;;;;;;;10.24;66.15;98396.97;5056731;28;19959;-53
2023/02/19 09:30:24;;;;;;;;;;;;;;;10.13;66.30;98409.06;5055423;28;20297;-52
2023/02/19 09:32:52;;;;;;;;;;;;;;;10.09;66.66;98411.56;5058152;28;19933;-51
2023/02/19 09:35:22;;;;;;;;;;;;;;;10.09;66.67;98416.19;5055798;28;19924;-54
2023/02/19 09:37:51;;;;;;;;;;;;;;;10.17;66.49;98420.94;5054702;28;19932;-54
2023/02/19 09:40:20;;;;;;;;;;;;;;;10.07;66.28;98423.84;5071327;28;19982;-54
2023/02/19 09:42:49;;;;;;;;;;;;;;;10.11;66.70;98420.22;5055423;28;19929;-52
2023/02/19 09:45:21;;;;;;;;;;;;;;;10.03;66.98;98422.81;5061063;28;19924;-52
2023/02/19 09:47:50;;;;;;;;;;;;;;;10.11;66.54;98419.41;5052423;28;19987;-53
2023/02/19 09:50:19;;;;;;;;;;;;;;;10.15;66.52;98436.72;5063915;28;20078;-52
2023/02/19 09:52:49;;;;;;;;;;;;;;;10.01;66.63;98423.06;5053747;28;19924;-52
2023/02/19 09:55:26;;;;;;;;;;;;;;;10.02;66.96;98421.19;5056266;28;19924;-52
2023/02/19 09:57:55;;;;;;;;;;;;;;;10.05;66.92;98426.81;5056049;28;20029;-53
2023/02/19 10:00:23;;;;;;;;;;;;;;;10.12;66.86;98429.16;5058512;28;19943;-52
2023/02/19 10:02:53;;;;;;;;;;;;;;;10.14;66.96;98421.53;5059181;28;19928;-52
2023/02/19 10:05:21;;;;;;;;;;;;;;;10.06;67.32;98433.06;5056753;28;20305;-52
2023/02/19 10:07:51;;;;;;;;;;;;;;;10.12;67.45;98426.44;5056607;28;19929;-53
2023/02/19 10:10:24;;;;;;;;;;;;;;;10.18;67.68;98436.16;5056014;28;19989;-52
2023/02/19 10:12:54;;;;;;;;;;;;;;;10.16;67.55;98420.13;5062554;28;20010;-52
2023/02/19 10:15:24;;;;;;;;;;;;;;;10.22;67.34;98427.09;5057043;28;19933;-52
2023/02/19 10:17:52;;;;;;;;;;;;;;;10.25;67.38;98425.75;5058087;28;19983;-52
2023/02/19 10:20:23;;;;;;;;;;;;;;;10.26;67.25;98431.97;5056753;28;19929;-53
2023/02/19 10:22:53;;;;;;;;;;;;;;;10.25;67.17;98430.38;5057492;28;19939;-53
2023/02/19 10:25:21;;;;;;;;;;;;;;;10.28;66.73;98437.91;5054843;28;19932;-53
2023/02/19 10:27:49;;;;;;;;;;;;;;;10.27;66.21;98442.53;5054134;28;19939;-52
2023/02/19 10:30:18;;;;;;;;;;;;;;;10.29;66.30;98444.97;5055918;28;19925;-58
2023/02/19 10:32:58;;;;;;;;;;;;;;;10.28;66.17;98451.47;5055143;28;20363;-53
2023/02/19 10:35:26;;;;;;;;;;;;;;;10.42;65.79;98453.16;5091719;28;19928;-53
2023/02/19 10:37:56;;;;;;;;;;;;;;;10.39;65.50;98451.03;5053575;28;19924;-53
2023/02/19 10:40:25;;;;;;;;;;;;;;;10.43;65.21;98454.75;5057295;28;19932;-53
2023/02/19 10:42:54;;;;;;;;;;;;;;;10.38;65.27;98451.31;5056327;28;19972;-53
2023/02/19 10:45:23;;;;;;;;;;;;;;;10.49;65.17;98459.03;5053974;28;19932;-53
2023/02/19 10:47:53;;;;;;;;;;;;;;;10.49;64.52;98453.59;5056991;28;19994;-53
2023/02/19 10:50:23;;;;;;;;;;;;;;;10.47;65.06;98482.94;5055601;28;20366;-52
2023/02/19 10:52:52;;;;;;;;;;;;;;;10.52;65.52;98467.69;5055164;28;20421;-53
2023/02/19 10:55:28;;;;;;;;;;;;;;;10.56;66.62;98464.06;5056538;28;19932;-52
2023/02/19 10:57:57;;;;;;;;;;;;;;;10.48;66.93;98464.75;5055536;28;20278;-58
2023/02/19 11:00:27;;;;;;;;;;;;;;;10.37;67.56;98472.25;5059681;28;20290;-52
2023/02/19 11:03:19;;;;;;;;;;;;;;;10.36;66.53;98458.97;5064456;28;19932;-53
2023/02/19 11:05:51;;;;;;;;;;;;;;;10.44;66.68;98469.97;5062746;28;20015;-52
2023/02/19 11:08:21;;;;;;;;;;;;;;;10.29;66.73;98480.28;5061714;28;19951;-52
2023/02/19 11:10:50;;;;;;;;;;;;;;;10.21;68.15;98479.78;5063606;28;20895;-53
2023/02/19 11:13:20;;;;;;;;;;;;;;;10.27;67.82;98480.56;5060787;28;19932;-52
2023/02/19 11:15:51;;;;;;;;;;;;;;;10.21;67.83;98490.66;5064013;28;20403;-53
2023/02/19 11:18:21;;;;;;;;;;;;;;;10.14;68.42;98492.13;5065521;28;19924;-52
2023/02/19 11:20:50;;;;;;;;;;;;;;;10.10;69.40;98491.09;5060308;28;20409;-55
2023/02/19 11:23:21;;;;;;;;;;;;;;;9.96;70.24;98483.72;5064721;28;19924;-53
2023/02/19 11:26:17;;;;;;;;;;;;;;;9.90;70.90;98490.28;5069028;28;19955;-52
2023/02/19 11:28:55;;;;;;;;;;;;;;;9.80;71.20;98503.19;5068767;28;20285;-52
2023/02/19 11:31:30;;;;;;;;;;;;;;;9.89;70.87;98501.44;5063995;28;19935;-52
2023/02/19 11:34:00;;;;;;;;;;;;;;;9.88;71.39;98503.34;5065408;28;19956;-52
2023/02/19 11:36:29;;;;;;;;;;;;;;;9.82;71.59;98512.66;5079954;28;20408;-53
2023/02/19 11:38:58;;;;;;;;;;;;;;;9.84;71.57;98513.16;5057064;28;20374;-52
2023/02/19 11:41:30;;;;;;;;;;;;;;;9.62;72.16;98518.34;5068215;28;19932;-53
2023/02/19 11:44:04;;;;;;;;;;;;;;;9.66;72.79;98512.03;5062059;28;19924;-53
2023/02/19 11:46:36;;;;;;;;;;;;;;;9.75;72.66;98520.34;5066296;28;19924;-53
2023/02/19 11:49:07;;;;;;;;;;;;;;;9.73;72.06;98517.09;5068171;28;19936;-52
2023/02/19 11:52:00;;;;;;;;;;;;;;;9.57;72.80;98512.97;5062651;28;20416;-52
2023/02/19 11:54:32;;;;;;;;;;;;;;;9.54;72.91;98505.44;5098013;28;19955;-52
2023/02/19 12:03:00;;;;;;;;;;;;;;;9.79;71.76;98528.69;5069150;28;20356;-53
2023/02/19 12:05:32;;;;;;;;;;;;;;;9.82;71.51;98518.09;5072512;28;19935;-52
2023/02/19 12:08:18;;;;;;;;;;;;;;;9.86;71.49;98521.84;5068627;28;19946;-53
2023/02/19 12:10:53;;;;;;;;;;;;;;;9.78;72.20;98530.59;5066622;28;20381;-53
2023/02/19 12:13:24;;;;;;;;;;;;;;;9.70;71.62;98534.78;5061383;28;19924;-53
2023/02/19 12:15:56;;;;;;;;;;;;;;;9.69;71.74;98525.03;5066326;28;19933;-52
2023/02/19 12:18:34;;;;;;;;;;;;;;;9.74;70.72;98528.75;5067397;28;20381;-53
2023/02/19 12:21:05;;;;;;;;;;;;;;;9.87;70.70;98530.78;5071303;28;20086;-53
2023/02/19 12:23:38;;;;;;;;;;;;;;;10.13;69.94;98536.69;5065655;28;19924;-53
2023/02/19 12:26:06;;;;;;;;;;;;;;;10.34;68.58;98527.16;5056405;28;20397;-53
2023/02/19 12:28:49;;;;;;;;;;;;;;;10.32;69.49;98518.50;5066547;28;19936;-53
2023/02/19 12:31:22;;;;;;;;;;;;;;;10.23;69.09;98514.81;5055087;28;20282;-53
2023/02/19 12:34:05;;;;;;;;;;;;;;;10.15;68.96;98510.84;5066247;28;19929;-53
2023/02/19 12:36:35;;;;;;;;;;;;;;;10.19;69.03;98511.88;5052673;28;20015;-53
2023/02/19 12:39:05;;;;;;;;;;;;;;;10.13;69.25;98510.34;5056686;28;19925;-53
2023/02/19 12:41:36;;;;;;;;;;;;;;;10.21;69.47;98501.50;5059811;28;19932;-53
2023/02/19 12:47:06;;;;;;;;;;;;;;;10.31;69.65;98510.66;5065634;28;20381;-54
2023/02/19 12:49:35;;;;;;;;;;;;;;;10.23;70.77;98498.53;5068056;28;19924;-54
2023/02/19 12:52:06;;;;;;;;;;;;;;;10.19;70.99;98498.28;5068927;28;19928;-53
2023/02/19 12:54:34;;;;;;;;;;;;;;;10.31;70.68;98494.34;5064819;28;19924;-53
2023/02/19 12:57:27;;;;;;;;;;;;;;;10.58;70.40;98509.97;5070436;28;19932;-53
2023/02/19 13:00:23;;;;;;;;;;;;;;;10.71;69.63;98509.22;5055288;28;19929;-54
2023/02/19 13:02:54;;;;;;;;;;;;;;;10.78;69.28;98516.97;5058547;28;20357;-53
2023/02/19 13:05:24;;;;;;;;;;;;;;;10.75;68.73;98504.78;5068819;28;19990;-53
2023/02/19 13:07:53;;;;;;;;;;;;;;;10.67;67.72;98505.47;5095429;28;20389;-52
2023/02/19 13:10:23;;;;;;;;;;;;;;;10.53;68.78;98508.13;5060219;28;20393;-52
2023/02/19 13:12:51;;;;;;;;;;;;;;;10.58;69.00;98507.25;5055951;28;19928;-52
2023/02/19 13:15:21;;;;;;;;;;;;;;;10.47;67.86;98506.59;5065471;28;22136;-53
2023/02/19 13:17:54;;;;;;;;;;;;;;;10.30;67.61;98501.69;5064046;28;20374;-53
2023/02/19 13:20:24;;;;;;;;;;;;;;;10.27;68.56;98510.41;5054675;28;19929;-54
2023/02/19 13:25:43;;;;;;;;;;;;;;;10.22;68.38;98507.75;5059197;28;19932;-53
2023/02/19 13:28:18;;;;;;;;;;;;;;;10.18;69.13;98512.19;5066406;28;20282;-54
2023/02/19 13:30:53;;;;;;;;;;;;;;;10.20;69.41;98523.53;5057965;28;20271;-53
2023/02/19 13:33:25;;;;;;;;;;;;;;;10.19;69.48;98519.22;5062549;28;19925;-53
2023/02/19 13:36:44;;;;;;;;;;;;;;;10.14;70.03;98522.00;5057067;28;19932;-53
2023/02/19 13:39:13;;;;;;;;;;;;;;;10.44;69.20;98518.88;5089097;28;19924;-53
2023/02/19 13:41:49;;;;;;;;;;;;;;;10.54;67.94;98511.63;5052050;28;20031;-53
2023/02/19 13:44:22;;;;;;;;;;;;;;;10.59;67.39;98522.44;5058393;28;19959;-53
2023/02/19 13:46:51;;;;;;;;;;;;;;;10.38;66.84;98532.81;5059354;28;19931;-53
2023/02/19 13:49:35;;;;;;;;;;;;;;;10.45;67.06;98527.81;5065493;28;19925;-53
2023/02/19 13:52:05;;;;;;;;;;;;;;;10.44;66.39;98532.44;5054840;28;19924;-53
2023/02/19 13:54:38;;;;;;;;;;;;;;;10.47;66.72;98526.41;5064951;28;20013;-58
2023/02/19 13:57:32;;;;;;;;;;;;;;;10.47;66.31;98528.31;5073553;28;20360;-54
2023/02/19 14:00:26;;;;;;;;;;;;;;;10.47;65.68;98537.28;5055677;28;19935;-53
2023/02/19 14:03:01;;;;;;;;;;;;;;;10.30;66.41;98537.00;5060390;28;19929;-53
2023/02/19 14:05:44;;;;;;;;;;;;;;;10.14;66.80;98546.44;5054303;28;19932;-53